Time;durP1;ratioP1;P1;durP2;ratioP2;P2;SDS_P1;SDS_P2;PMS_P1;PMS_P2;Temp;Humidity;BMP_temperature;BMP_pressure;BME280_temperature;BME280_humidity;BME280_pressure;Samples;Min_cycle;Max_cycle;Signal;HPM_P1;HPM_P2
2023/12/04 00:00:32;;;;;;;;;;;-1.00;99.90;;;;;;5052101;28;19958;-62
2023/12/04 00:02:59;;;;;;;;;;;-1.00;99.90;;;;;;5050537;28;20338;-61
2023/12/04 00:05:26;;;;;;;;;;;-1.00;99.90;;;;;;5051167;28;19974;-59
2023/12/04 00:07:53;;;;;;;;;;;-1.00;99.90;;;;;;5048271;28;19933;-61
2023/12/04 00:10:20;;;;;;;;;;;-1.00;99.90;;;;;;5041098;28;19925;-58
2023/12/04 00:12:46;;;;;;;;;;;-1.00;99.90;;;;;;5052945;28;20015;-60
2023/12/04 00:15:13;;;;;;;;;;;-0.90;99.90;;;;;;5059175;28;19968;-65
2023/12/04 00:17:40;;;;;;;;;;;-1.00;99.90;;;;;;5052576;28;19932;-59
2023/12/04 00:20:09;;;;;;;;;;;-1.00;99.90;;;;;;5058760;28;19929;-60
2023/12/04 00:22:36;;;;;;;;;;;-1.00;99.90;;;;;;5053009;28;20040;-59
2023/12/04 00:25:03;;;;;;;;;;;-1.00;99.90;;;;;;5055235;28;20021;-61
2023/12/04 00:27:30;;;;;;;;;;;-1.00;99.90;;;;;;5054917;28;19943;-60
2023/12/04 00:29:58;;;;;;;;;;;-1.00;99.90;;;;;;5056789;28;19925;-61
2023/12/04 00:32:24;;;;;;;;;;;-1.00;99.90;;;;;;5050130;28;19948;-59
2023/12/04 00:34:51;;;;;;;;;;;-1.00;99.90;;;;;;5042327;28;20375;-58
2023/12/04 00:37:18;;;;;;;;;;;-1.00;99.90;;;;;;5047012;28;19925;-62
2023/12/04 00:39:45;;;;;;;;;;;-1.00;99.90;;;;;;5058924;28;19967;-59
2023/12/04 00:42:12;;;;;;;;;;;-1.00;99.90;;;;;;5056898;28;19936;-61
2023/12/04 00:44:38;;;;;;;;;;;-1.10;99.90;;;;;;5048649;28;19968;-59
2023/12/04 00:47:05;;;;;;;;;;;-1.10;99.90;;;;;;5057013;28;19968;-61
2023/12/04 00:49:32;;;;;;;;;;;-1.10;99.90;;;;;;5057643;28;19929;-59
2023/12/04 00:51:59;;;;;;;;;;;-1.10;99.90;;;;;;5055342;28;19929;-60
2023/12/04 00:54:26;;;;;;;;;;;-1.20;99.90;;;;;;5055393;28;20113;-58
2023/12/04 00:56:53;;;;;;;;;;;-1.20;99.90;;;;;;5050375;28;19980;-68
2023/12/04 00:59:19;;;;;;;;;;;-1.20;99.90;;;;;;5050030;28;19964;-59
2023/12/04 01:01:46;;;;;;;;;;;-1.20;99.90;;;;;;5049380;28;19924;-59
2023/12/04 01:04:13;;;;;;;;;;;-1.20;99.90;;;;;;5048392;28;19928;-62
2023/12/04 01:06:40;;;;;;;;;;;-1.30;99.90;;;;;;5053163;28;19925;-59
2023/12/04 01:09:06;;;;;;;;;;;-1.30;99.90;;;;;;5053910;28;19925;-60
2023/12/04 01:11:33;;;;;;;;;;;-1.30;99.90;;;;;;5054137;28;20024;-61
2023/12/04 01:14:00;;;;;;;;;;;-1.30;99.90;;;;;;5054621;28;19960;-59
2023/12/04 01:16:28;;;;;;;;;;;-1.40;99.90;;;;;;5049695;28;19924;-59
2023/12/04 01:18:56;;;;;;;;;;;-1.40;99.90;;;;;;5050903;28;19947;-60
2023/12/04 01:21:22;;;;;;;;;;;-1.40;99.90;;;;;;5047053;28;19932;-58
2023/12/04 01:23:49;;;;;;;;;;;-1.50;99.90;;;;;;5051509;28;20047;-59
2023/12/04 01:26:16;;;;;;;;;;;-1.50;99.90;;;;;;5052244;28;19932;-58
2023/12/04 01:28:43;;;;;;;;;;;-1.50;99.90;;;;;;5051689;28;19925;-61
2023/12/04 01:31:10;;;;;;;;;;;-1.50;99.90;;;;;;5042909;28;19975;-61
2023/12/04 01:33:36;;;;;;;;;;;-1.50;99.90;;;;;;5055072;28;20031;-62
2023/12/04 01:36:04;;;;;;;;;;;-1.50;99.90;;;;;;5050537;28;19933;-61
2023/12/04 01:38:30;;;;;;;;;;;-1.50;99.90;;;;;;5053936;28;20422;-59
2023/12/04 01:40:57;;;;;;;;;;;-1.60;99.90;;;;;;5050190;28;19960;-60
2023/12/04 01:43:24;;;;;;;;;;;-1.60;99.90;;;;;;5049724;28;20327;-60
2023/12/04 01:45:51;;;;;;;;;;;-1.60;99.90;;;;;;5049130;28;19960;-59
2023/12/04 01:48:19;;;;;;;;;;;-1.60;99.90;;;;;;5048687;28;19924;-61
2023/12/04 01:50:46;;;;;;;;;;;-1.60;99.90;;;;;;5056842;28;19933;-60
2023/12/04 01:53:13;;;;;;;;;;;-1.60;99.90;;;;;;5053554;28;19925;-59
2023/12/04 01:55:40;;;;;;;;;;;-1.60;99.90;;;;;;5046941;28;19967;-61
2023/12/04 01:58:07;;;;;;;;;;;-1.60;99.90;;;;;;5048861;28;19933;-61
2023/12/04 02:00:34;;;;;;;;;;;-1.60;99.90;;;;;;5054049;28;19936;-60
2023/12/04 02:03:02;;;;;;;;;;;-1.60;99.90;;;;;;5044081;28;19932;-66
2023/12/04 02:05:29;;;;;;;;;;;-1.60;99.90;;;;;;5048869;28;19925;-64
2023/12/04 02:07:56;;;;;;;;;;;-1.60;99.90;;;;;;5049380;28;19929;-59
2023/12/04 02:10:23;;;;;;;;;;;-1.60;99.90;;;;;;5047106;28;19979;-58
2023/12/04 02:12:50;;;;;;;;;;;-1.60;99.90;;;;;;5046179;28;19975;-64
2023/12/04 02:15:17;;;;;;;;;;;-1.60;99.90;;;;;;5049463;28;20297;-59
2023/12/04 02:17:44;;;;;;;;;;;-1.70;99.90;;;;;;5054425;28;19932;-62
2023/12/04 02:20:14;;;;;;;;;;;-1.70;99.90;;;;;;5046405;28;19932;-66
2023/12/04 02:22:41;;;;;;;;;;;-1.70;99.90;;;;;;5051391;28;20462;-60
2023/12/04 02:25:09;;;;;;;;;;;-1.70;99.90;;;;;;5054296;28;19975;-59
2023/12/04 02:27:50;;;;;;;;;;;-1.70;99.90;;;;;;5037399;28;20253;-63
2023/12/04 02:30:18;;;;;;;;;;;-1.70;99.90;;;;;;5046738;28;20000;-61
2023/12/04 02:32:45;;;;;;;;;;;-1.70;99.90;;;;;;5053871;28;19925;-60
2023/12/04 02:35:13;;;;;;;;;;;-1.70;99.90;;;;;;5049619;28;19929;-63
2023/12/04 02:37:40;;;;;;;;;;;-1.70;99.90;;;;;;5048090;28;20023;-65
2023/12/04 02:40:07;;;;;;;;;;;-1.70;99.90;;;;;;5059393;28;20382;-64
2023/12/04 02:42:34;;;;;;;;;;;-1.70;99.90;;;;;;5051168;28;19947;-59
2023/12/04 02:45:01;;;;;;;;;;;-1.70;99.90;;;;;;5050248;28;19928;-63
2023/12/04 02:47:28;;;;;;;;;;;-1.70;99.90;;;;;;5051200;28;19928;-64
2023/12/04 02:49:55;;;;;;;;;;;-1.70;99.90;;;;;;5047571;28;19925;-59
2023/12/04 02:52:22;;;;;;;;;;;-1.70;99.90;;;;;;5049749;28;19979;-63
2023/12/04 02:54:48;;;;;;;;;;;-1.70;99.90;;;;;;5040261;28;20742;-59
2023/12/04 02:57:15;;;;;;;;;;;-1.70;99.90;;;;;;5046109;28;19925;-59
2023/12/04 02:59:42;;;;;;;;;;;-1.70;99.90;;;;;;5046239;28;19925;-59
2023/12/04 03:02:09;;;;;;;;;;;-1.70;99.90;;;;;;5046723;28;19928;-59
2023/12/04 03:04:36;;;;;;;;;;;-1.70;99.90;;;;;;5058357;28;19935;-60
2023/12/04 03:07:03;;;;;;;;;;;-1.70;99.90;;;;;;5054261;28;19929;-60
2023/12/04 03:09:29;;;;;;;;;;;-1.70;99.90;;;;;;5052140;28;19925;-61
2023/12/04 03:12:15;;;;;;;;;;;-1.80;99.90;;;;;;5049573;28;20025;-61
2023/12/04 03:14:42;;;;;;;;;;;-1.80;99.90;;;;;;5044609;28;19928;-63
2023/12/04 03:17:08;;;;;;;;;;;-1.70;99.90;;;;;;5047215;28;19968;-59
2023/12/04 03:19:35;;;;;;;;;;;-1.80;99.90;;;;;;5049539;28;19972;-61
2023/12/04 03:22:02;;;;;;;;;;;-1.70;99.90;;;;;;5046444;28;20035;-61
2023/12/04 03:24:29;;;;;;;;;;;-1.70;99.90;;;;;;5052535;28;19929;-58
2023/12/04 03:26:56;;;;;;;;;;;-1.80;99.90;;;;;;5045549;28;19931;-61
2023/12/04 03:29:23;;;;;;;;;;;-1.80;99.90;;;;;;5057502;28;19998;-59
2023/12/04 03:31:51;;;;;;;;;;;-1.90;99.90;;;;;;5035356;28;20027;-59
2023/12/04 03:34:18;;;;;;;;;;;-1.90;99.90;;;;;;5051171;28;20361;-61
2023/12/04 03:36:44;;;;;;;;;;;-1.90;99.90;;;;;;5047980;28;19983;-59
2023/12/04 03:39:11;;;;;;;;;;;-1.90;99.90;;;;;;5050626;28;19925;-64
2023/12/04 03:41:38;;;;;;;;;;;-1.90;99.90;;;;;;5052562;28;19928;-60
2023/12/04 03:44:05;;;;;;;;;;;-1.90;99.90;;;;;;5051500;28;19970;-59
2023/12/04 03:46:32;;;;;;;;;;;-2.00;99.90;;;;;;5058015;28;20360;-58
2023/12/04 03:48:59;;;;;;;;;;;-1.90;99.90;;;;;;5055853;28;19956;-61
2023/12/04 03:51:26;;;;;;;;;;;-2.00;99.90;;;;;;5058492;28;19932;-60
2023/12/04 03:53:52;;;;;;;;;;;-2.00;99.90;;;;;;5051438;28;19925;-59
2023/12/04 03:56:20;;;;;;;;;;;-2.00;99.90;;;;;;5054008;28;19979;-59
2023/12/04 03:58:47;;;;;;;;;;;-2.00;99.90;;;;;;5045741;28;19937;-59
2023/12/04 04:01:13;;;;;;;;;;;-2.00;99.90;;;;;;5052734;28;19925;-64
2023/12/04 04:03:42;;;;;;;;;;;-2.10;99.90;;;;;;5036656;28;20405;-60
2023/12/04 04:06:11;;;;;;;;;;;-2.10;99.90;;;;;;5053102;28;19960;-60
2023/12/04 04:08:38;;;;;;;;;;;-2.00;99.90;;;;;;5043730;28;19932;-60
2023/12/04 04:11:05;;;;;;;;;;;-2.00;99.90;;;;;;5057338;28;19936;-59
2023/12/04 04:13:32;;;;;;;;;;;-2.10;99.90;;;;;;5058513;28;19929;-63
2023/12/04 04:15:59;;;;;;;;;;;-2.10;99.90;;;;;;5056150;28;19928;-59
2023/12/04 04:18:26;;;;;;;;;;;-2.10;99.90;;;;;;5056076;28;19982;-59
2023/12/04 04:20:52;;;;;;;;;;;-2.10;99.90;;;;;;5055916;28;19928;-62
2023/12/04 04:23:19;;;;;;;;;;;-2.10;99.90;;;;;;5056139;28;19936;-59
2023/12/04 04:25:46;;;;;;;;;;;-2.10;99.90;;;;;;5051973;28;19979;-62
2023/12/04 04:28:13;;;;;;;;;;;-2.10;99.90;;;;;;5052371;28;20428;-61
2023/12/04 04:30:40;;;;;;;;;;;-2.20;99.90;;;;;;5049575;28;19932;-59
2023/12/04 04:33:07;;;;;;;;;;;-2.10;99.90;;;;;;5049982;28;19928;-59
2023/12/04 04:35:33;;;;;;;;;;;-2.10;99.90;;;;;;5059988;28;19925;-62
2023/12/04 04:38:00;;;;;;;;;;;-2.10;99.90;;;;;;5053183;28;20294;-67
2023/12/04 04:40:27;;;;;;;;;;;-2.20;99.90;;;;;;5052951;28;19994;-58
2023/12/04 04:42:54;;;;;;;;;;;-2.20;99.90;;;;;;5056216;28;20000;-60
2023/12/04 04:45:21;;;;;;;;;;;-2.20;99.90;;;;;;5050086;28;19933;-59
2023/12/04 04:47:47;;;;;;;;;;;-2.20;99.90;;;;;;5050885;28;19929;-58
2023/12/04 04:50:14;;;;;;;;;;;-2.30;99.90;;;;;;5054409;28;19971;-67
2023/12/04 04:52:41;;;;;;;;;;;-2.30;99.90;;;;;;5041877;28;20015;-59
2023/12/04 04:55:08;;;;;;;;;;;-2.30;99.90;;;;;;5041307;28;19972;-59
2023/12/04 04:57:35;;;;;;;;;;;-2.30;99.90;;;;;;5054685;28;19988;-60
2023/12/04 05:00:02;;;;;;;;;;;-2.30;99.90;;;;;;5059182;28;19928;-64
2023/12/04 05:02:29;;;;;;;;;;;-2.30;99.90;;;;;;5057081;28;19950;-59
2023/12/04 05:04:55;;;;;;;;;;;-2.30;99.90;;;;;;5055278;28;19925;-63
2023/12/04 05:07:22;;;;;;;;;;;-2.30;99.90;;;;;;5056092;28;19936;-67
2023/12/04 05:09:49;;;;;;;;;;;-2.30;99.90;;;;;;5048150;28;19924;-59
2023/12/04 05:12:16;;;;;;;;;;;-2.40;99.90;;;;;;5049997;28;19944;-62
2023/12/04 05:14:43;;;;;;;;;;;-2.40;99.90;;;;;;5050665;28;19928;-65
2023/12/04 05:17:09;;;;;;;;;;;-2.40;99.90;;;;;;5050973;28;19925;-59
2023/12/04 05:19:36;;;;;;;;;;;-2.40;99.90;;;;;;5046894;28;19941;-59
2023/12/04 05:22:03;;;;;;;;;;;-2.40;99.90;;;;;;5041916;28;20450;-64
2023/12/04 05:24:30;;;;;;;;;;;-2.40;99.90;;;;;;5052138;28;20004;-59
2023/12/04 05:26:57;;;;;;;;;;;-2.40;99.90;;;;;;5051212;28;20003;-60
2023/12/04 05:29:24;;;;;;;;;;;-2.40;99.90;;;;;;5046539;28;20314;-61
2023/12/04 05:31:51;;;;;;;;;;;-2.40;99.90;;;;;;5055105;28;19925;-58
2023/12/04 05:34:18;;;;;;;;;;;-2.40;99.90;;;;;;5051923;28;19951;-62
2023/12/04 06:46:00;;;;;;;;;;;-2.70;99.90;;;;;;5033731;28;20048;-60
2023/12/04 06:48:27;;;;;;;;;;;-2.70;99.90;;;;;;5025124;28;20873;-66
2023/12/04 06:50:54;;;;;;;;;;;-2.70;99.90;;;;;;5028667;28;19929;-58
2023/12/04 06:53:20;;;;;;;;;;;-2.80;99.90;;;;;;5028448;28;19933;-63
2023/12/04 06:55:47;;;;;;;;;;;-2.80;99.90;;;;;;5013089;28;20443;-62
2023/12/04 06:58:14;;;;;;;;;;;-2.80;99.90;;;;;;5038213;28;20020;-59
2023/12/04 07:00:41;;;;;;;;;;;-2.80;99.90;;;;;;5031544;28;19932;-59
2023/12/04 07:03:08;;;;;;;;;;;-2.80;99.90;;;;;;5033558;28;19933;-58
2023/12/04 07:05:35;;;;;;;;;;;-2.80;99.90;;;;;;5031447;28;19933;-60
2023/12/04 07:08:02;;;;;;;;;;;-2.80;99.90;;;;;;5033148;28;19925;-59
2023/12/04 07:10:29;;;;;;;;;;;-2.80;99.90;;;;;;5029873;28;19929;-60
2023/12/04 07:13:00;;;;;;;;;;;-2.80;99.90;;;;;;5027675;28;20012;-60
2023/12/04 07:15:27;;;;;;;;;;;-2.80;99.90;;;;;;5029310;28;20028;-60
2023/12/04 07:17:54;;;;;;;;;;;-2.90;99.90;;;;;;5034160;28;19925;-66
2023/12/04 07:20:23;;;;;;;;;;;-2.90;99.90;;;;;;5027326;28;19929;-58
2023/12/04 07:22:51;;;;;;;;;;;-2.90;99.90;;;;;;5036415;28;20437;-60
2023/12/04 07:25:18;;;;;;;;;;;-2.90;99.90;;;;;;5032432;28;19964;-62
2023/12/04 07:27:45;;;;;;;;;;;-2.90;99.90;;;;;;5029281;28;19960;-59
2023/12/04 07:30:12;;;;;;;;;;;-2.90;99.90;;;;;;5029715;28;19960;-59
2023/12/04 07:32:43;;;;;;;;;;;-2.90;99.90;;;;;;5026183;28;19951;-59
2023/12/04 07:35:10;;;;;;;;;;;-3.00;99.90;;;;;;5027123;28;20375;-58
2023/12/04 07:37:37;;;;;;;;;;;-3.00;99.90;;;;;;5030863;28;20056;-60
2023/12/04 07:40:05;;;;;;;;;;;-3.00;99.90;;;;;;5030306;28;20434;-60
2023/12/04 07:42:32;;;;;;;;;;;-3.10;99.90;;;;;;5025878;28;20315;-63
2023/12/04 07:45:00;;;;;;;;;;;-3.10;99.90;;;;;;5046819;28;20382;-63
2023/12/04 07:47:26;;;;;;;;;;;-3.00;99.90;;;;;;5057297;28;19979;-59
2023/12/04 07:49:53;;;;;;;;;;;-3.00;99.90;;;;;;5057978;28;19929;-60
2023/12/04 07:52:20;;;;;;;;;;;-3.00;99.90;;;;;;5047474;28;19936;-60
2023/12/04 07:54:47;;;;;;;;;;;-3.00;99.90;;;;;;5048227;28;19932;-61
2023/12/04 07:57:14;;;;;;;;;;;-3.10;99.90;;;;;;5047138;28;19971;-59
2023/12/04 07:59:42;;;;;;;;;;;-3.10;99.90;;;;;;5050686;28;19978;-59
2023/12/04 08:02:09;;;;;;;;;;;-3.20;99.90;;;;;;5046988;28;20428;-61
2023/12/04 08:04:36;;;;;;;;;;;-3.20;99.90;;;;;;5048984;28;19929;-60
2023/12/04 08:07:03;;;;;;;;;;;-3.20;99.90;;;;;;5055405;28;19936;-61
2023/12/04 08:09:29;;;;;;;;;;;-3.20;99.90;;;;;;5047343;28;19929;-66
2023/12/04 08:11:56;;;;;;;;;;;-3.20;99.90;;;;;;5047463;28;20013;-62
2023/12/04 08:14:24;;;;;;;;;;;-3.20;99.90;;;;;;5048597;28;19929;-59
2023/12/04 08:16:50;;;;;;;;;;;-3.20;99.90;;;;;;5049553;28;19929;-60
2023/12/04 08:19:18;;;;;;;;;;;-3.20;99.90;;;;;;5050286;28;20383;-61
2023/12/04 08:21:46;;;;;;;;;;;-3.30;99.90;;;;;;5045744;28;19928;-60
2023/12/04 08:24:13;;;;;;;;;;;-3.30;99.90;;;;;;5048186;28;19928;-59
2023/12/04 08:26:39;;;;;;;;;;;-3.20;99.90;;;;;;5045803;28;19929;-58
2023/12/04 08:29:06;;;;;;;;;;;-3.20;99.90;;;;;;5049085;28;19929;-59
2023/12/04 08:31:34;;;;;;;;;;;-3.20;99.90;;;;;;5052086;28;20456;-59
2023/12/04 08:34:00;;;;;;;;;;;-3.20;99.90;;;;;;5050190;28;19951;-59
2023/12/04 08:36:27;;;;;;;;;;;-3.20;99.90;;;;;;5048602;28;19929;-62
2023/12/04 08:39:10;;;;;;;;;;;-3.20;99.90;;;;;;5056542;28;19932;-61
2023/12/04 08:41:37;;;;;;;;;;;-3.20;99.90;;;;;;5056295;28;20379;-59
2023/12/04 08:44:07;;;;;;;;;;;-3.20;99.90;;;;;;5053122;28;19983;-59
2023/12/04 08:46:34;;;;;;;;;;;-3.10;99.90;;;;;;5052711;28;19928;-60
2023/12/04 08:49:01;;;;;;;;;;;-3.20;99.90;;;;;;5050411;28;19925;-59
2023/12/04 08:51:27;;;;;;;;;;;-3.20;99.90;;;;;;5057431;28;19931;-58
2023/12/04 08:53:54;;;;;;;;;;;-3.30;99.90;;;;;;5058670;28;19983;-59
2023/12/04 08:56:21;;;;;;;;;;;-3.20;99.90;;;;;;5061145;28;19937;-59
2023/12/04 08:58:57;;;;;;;;;;;-3.30;99.90;;;;;;5049232;28;20412;-58
2023/12/04 09:01:25;;;;;;;;;;;-3.20;99.90;;;;;;5055058;28;19943;-59
2023/12/04 09:03:52;;;;;;;;;;;-3.20;99.90;;;;;;5054141;28;19983;-60
2023/12/04 09:06:19;;;;;;;;;;;-3.20;99.90;;;;;;5053057;28;20421;-58
2023/12/04 09:09:06;;;;;;;;;;;-3.20;99.90;;;;;;5055065;28;19929;-64
2023/12/04 09:11:42;;;;;;;;;;;-3.20;99.90;;;;;;5052957;28;20290;-58
2023/12/04 09:14:09;;;;;;;;;;;-3.20;99.90;;;;;;5053071;28;20010;-58
2023/12/04 09:16:36;;;;;;;;;;;-3.20;99.90;;;;;;5058262;28;19928;-61
2023/12/04 09:19:03;;;;;;;;;;;-3.30;99.90;;;;;;5050245;28;20391;-61
2023/12/04 09:21:30;;;;;;;;;;;-3.20;99.90;;;;;;5051014;28;20400;-57
2023/12/04 09:23:57;;;;;;;;;;;-3.20;99.90;;;;;;5052721;28;19929;-60
2023/12/04 09:26:24;;;;;;;;;;;-3.20;99.90;;;;;;5049971;28;20387;-60
2023/12/04 09:28:51;;;;;;;;;;;-3.20;99.90;;;;;;5051150;28;19925;-58
2023/12/04 09:31:19;;;;;;;;;;;-3.10;99.90;;;;;;5051081;28;20388;-59
2023/12/04 09:33:47;;;;;;;;;;;-3.10;99.90;;;;;;5050841;28;20414;-59
2023/12/04 09:36:14;;;;;;;;;;;-3.10;99.90;;;;;;5048949;28;19924;-60
2023/12/04 09:38:41;;;;;;;;;;;-3.10;99.90;;;;;;5054648;28;20379;-58
2023/12/04 09:41:10;;;;;;;;;;;-3.10;99.90;;;;;;5055269;28;19975;-58
2023/12/04 09:43:37;;;;;;;;;;;-3.10;99.90;;;;;;5031824;28;19925;-60
2023/12/04 09:46:05;;;;;;;;;;;-3.10;99.90;;;;;;5048568;28;20436;-59
2023/12/04 09:48:32;;;;;;;;;;;-3.10;99.90;;;;;;5057851;28;19931;-59
2023/12/04 09:50:59;;;;;;;;;;;-3.10;99.90;;;;;;5053225;28;20022;-61
2023/12/04 09:53:27;;;;;;;;;;;-3.20;99.90;;;;;;5053466;28;20593;-60
2023/12/04 09:55:57;;;;;;;;;;;-3.20;99.90;;;;;;5053722;28;19982;-58
2023/12/04 09:58:26;;;;;;;;;;;-3.20;99.90;;;;;;5058591;28;19967;-59
2023/12/04 10:00:54;;;;;;;;;;;-3.20;99.90;;;;;;5048243;28;19971;-59
2023/12/04 10:03:21;;;;;;;;;;;-3.20;99.90;;;;;;5062676;28;19933;-58
2023/12/04 10:05:48;;;;;;;;;;;-3.20;99.90;;;;;;5056266;28;20341;-58
2023/12/04 10:08:17;;;;;;;;;;;-3.20;99.90;;;;;;5056537;28;19929;-61
2023/12/04 10:10:44;;;;;;;;;;;-3.20;99.90;;;;;;5057887;28;19928;-58
2023/12/04 10:13:11;;;;;;;;;;;-3.30;99.90;;;;;;5051301;28;19925;-58
2023/12/04 10:15:48;;;;;;;;;;;-3.30;99.90;;;;;;5049632;28;19932;-60
2023/12/04 10:18:30;;;;;;;;;;;-3.30;99.90;;;;;;5049536;28;19924;-57
2023/12/04 10:20:57;;;;;;;;;;;-3.40;99.90;;;;;;5041410;28;19940;-58
2023/12/04 10:23:43;;;;;;;;;;;-3.40;99.90;;;;;;5049074;28;19924;-60
2023/12/04 11:35:18;;;;;;;;;;;-3.70;99.90;;;;;;5069932;28;21110;-68
2023/12/04 11:37:46;;;;;;;;;;;-3.60;99.90;;;;;;5044391;28;19936;-64
2023/12/04 11:40:16;;;;;;;;;;;-3.60;99.90;;;;;;5047477;28;19968;-58
2023/12/04 11:42:43;;;;;;;;;;;-3.70;99.90;;;;;;5045750;28;19925;-58
2023/12/04 11:45:10;;;;;;;;;;;-3.70;99.90;;;;;;5045892;28;19940;-62
2023/12/04 11:47:49;;;;;;;;;;;-3.70;99.90;;;;;;5048049;28;19925;-61
2023/12/04 11:50:18;;;;;;;;;;;-3.70;99.90;;;;;;5049035;28;20334;-64
2023/12/04 11:52:46;;;;;;;;;;;-3.70;99.90;;;;;;5051596;28;20863;-58
2023/12/04 11:55:23;;;;;;;;;;;-3.70;99.90;;;;;;5047903;28;20405;-58
2023/12/04 11:57:51;;;;;;;;;;;-3.70;99.90;;;;;;5069507;28;19928;-60
2023/12/04 12:00:18;;;;;;;;;;;-3.60;99.90;;;;;;5066053;28;20302;-62
2023/12/04 12:02:49;;;;;;;;;;;-3.70;99.90;;;;;;5068621;28;19929;-58
2023/12/04 12:05:38;;;;;;;;;;;-3.70;99.90;;;;;;5070209;28;19931;-64
2023/12/04 12:08:08;;;;;;;;;;;-3.70;99.90;;;;;;5070362;28;19924;-59
2023/12/04 12:10:35;;;;;;;;;;;-3.70;99.90;;;;;;5076533;28;19928;-62
2023/12/04 12:13:02;;;;;;;;;;;-3.70;99.90;;;;;;5073425;28;19932;-63
2023/12/04 12:15:29;;;;;;;;;;;-3.70;99.90;;;;;;5072636;28;19939;-61
2023/12/04 12:17:56;;;;;;;;;;;-3.70;99.90;;;;;;5070291;28;20289;-64
2023/12/04 12:20:23;;;;;;;;;;;-3.70;99.90;;;;;;5071749;28;20633;-62
2023/12/04 12:22:51;;;;;;;;;;;-3.70;99.90;;;;;;5059243;28;19929;-61
2023/12/04 12:25:19;;;;;;;;;;;-3.70;99.90;;;;;;5069003;28;20566;-61
2023/12/04 12:27:45;;;;;;;;;;;-3.80;99.90;;;;;;5072089;28;20047;-62
2023/12/04 12:30:13;;;;;;;;;;;-3.80;99.90;;;;;;5073480;28;19932;-64
2023/12/04 12:32:40;;;;;;;;;;;-3.80;99.90;;;;;;5073653;28;19939;-60
2023/12/04 12:35:11;;;;;;;;;;;-3.80;99.90;;;;;;5072684;28;20420;-60
2023/12/04 12:37:39;;;;;;;;;;;-3.70;99.90;;;;;;5071794;28;19924;-58
2023/12/04 12:40:09;;;;;;;;;;;-3.70;99.90;;;;;;5071907;28;20014;-58
2023/12/04 12:42:38;;;;;;;;;;;-3.70;99.90;;;;;;5072666;28;19931;-63
2023/12/04 12:45:05;;;;;;;;;;;-3.60;99.90;;;;;;5072858;28;19929;-60
2023/12/04 12:47:32;;;;;;;;;;;-3.60;99.90;;;;;;5069950;28;19928;-59
2023/12/04 12:50:00;;;;;;;;;;;-3.60;99.90;;;;;;5061385;28;19932;-59
2023/12/04 12:52:27;;;;;;;;;;;-3.50;99.90;;;;;;5071935;28;20030;-57
2023/12/04 12:54:54;;;;;;;;;;;-3.50;99.90;;;;;;5076969;28;19932;-58
2023/12/04 12:57:21;;;;;;;;;;;-3.50;99.90;;;;;;5075232;28;20026;-64
2023/12/04 12:59:49;;;;;;;;;;;-3.40;99.90;;;;;;5071364;28;20772;-59
2023/12/04 13:02:16;;;;;;;;;;;-3.50;99.90;;;;;;5072564;28;20394;-63
2023/12/04 13:04:43;;;;;;;;;;;-3.40;99.90;;;;;;5069338;28;19927;-60
2023/12/04 13:07:11;;;;;;;;;;;-3.30;99.90;;;;;;5063369;28;19933;-61
2023/12/04 13:09:38;;;;;;;;;;;-3.30;99.90;;;;;;5071031;28;20019;-58
2023/12/04 13:12:06;;;;;;;;;;;-3.30;99.90;;;;;;5076354;28;19928;-61
2023/12/04 13:14:34;;;;;;;;;;;-3.30;99.90;;;;;;5072600;28;20401;-61
2023/12/04 13:17:01;;;;;;;;;;;-3.30;99.90;;;;;;5073679;28;20635;-58
2023/12/04 13:19:28;;;;;;;;;;;-3.30;99.90;;;;;;5076226;28;19974;-57
2023/12/04 13:21:55;;;;;;;;;;;-3.30;99.90;;;;;;5072661;28;19939;-58
2023/12/04 13:24:22;;;;;;;;;;;-3.20;99.90;;;;;;5071522;28;19963;-64
2023/12/04 13:26:49;;;;;;;;;;;-3.10;99.90;;;;;;5074215;28;19928;-59
2023/12/04 13:29:17;;;;;;;;;;;-3.10;99.90;;;;;;5072126;28;20017;-58
2023/12/04 13:31:46;;;;;;;;;;;-3.10;99.90;;;;;;5070487;28;20336;-61
2023/12/04 13:34:13;;;;;;;;;;;-3.10;99.90;;;;;;5072218;28;19932;-64
2023/12/04 13:36:40;;;;;;;;;;;-3.00;99.90;;;;;;5070444;28;20634;-60
2023/12/04 13:39:16;;;;;;;;;;;-3.00;99.90;;;;;;5076319;28;19925;-59
2023/12/04 13:44:29;;;;;;;;;;;-3.00;99.90;;;;;;5068181;28;19928;-61
2023/12/04 13:46:56;;;;;;;;;;;-3.00;99.90;;;;;;5068926;28;20424;-62
2023/12/04 13:49:23;;;;;;;;;;;-3.00;99.90;;;;;;5070083;28;19932;-59
2023/12/04 13:51:50;;;;;;;;;;;-2.90;99.90;;;;;;5069013;28;20022;-63
2023/12/04 13:54:21;;;;;;;;;;;-2.90;99.90;;;;;;5070812;28;19978;-61
2023/12/04 13:56:54;;;;;;;;;;;-2.90;99.90;;;;;;5069979;28;19978;-58
2023/12/04 13:59:23;;;;;;;;;;;-2.80;99.90;;;;;;5066330;28;19986;-61
2023/12/04 14:01:51;;;;;;;;;;;-2.80;99.90;;;;;;5068744;28;20171;-60
2023/12/04 14:04:18;;;;;;;;;;;-2.80;99.90;;;;;;5066986;28;19935;-61
2023/12/04 14:06:46;;;;;;;;;;;-2.80;99.90;;;;;;5075708;28;20325;-59
2023/12/04 14:09:16;;;;;;;;;;;-2.80;99.90;;;;;;5066785;28;19931;-60
2023/12/04 14:11:44;;;;;;;;;;;-2.80;99.90;;;;;;5070165;28;19935;-59
2023/12/04 14:14:12;;;;;;;;;;;-2.80;99.90;;;;;;5065909;28;19936;-60
2023/12/04 14:16:40;;;;;;;;;;;-2.70;99.90;;;;;;5065218;28;20688;-58
2023/12/04 14:19:07;;;;;;;;;;;-2.70;99.90;;;;;;5071626;28;19924;-59
2023/12/04 14:21:34;;;;;;;;;;;-2.70;99.90;;;;;;5067931;28;20023;-59
2023/12/04 14:24:03;;;;;;;;;;;-2.60;99.90;;;;;;5071549;28;20946;-61
2023/12/04 14:26:29;;;;;;;;;;;-2.60;99.90;;;;;;5072834;28;19932;-58
2023/12/04 14:28:57;;;;;;;;;;;-2.60;99.90;;;;;;5071655;28;19936;-62
2023/12/04 14:31:25;;;;;;;;;;;-2.60;99.90;;;;;;5068006;28;19931;-62
2023/12/04 14:33:53;;;;;;;;;;;-2.50;99.90;;;;;;5073653;28;19956;-59
2023/12/04 14:36:20;;;;;;;;;;;-2.50;99.90;;;;;;5074223;28;19946;-63
2023/12/04 14:38:47;;;;;;;;;;;-2.50;99.90;;;;;;5067676;28;19924;-58
2023/12/04 14:41:15;;;;;;;;;;;-2.50;99.90;;;;;;5064854;28;19928;-61
2023/12/04 14:43:42;;;;;;;;;;;-2.50;99.90;;;;;;5065215;28;19925;-59
2023/12/04 14:46:10;;;;;;;;;;;-2.50;99.90;;;;;;5078291;28;20318;-59
2023/12/04 14:48:38;;;;;;;;;;;-2.50;99.90;;;;;;5072010;28;19928;-62
2023/12/04 14:51:06;;;;;;;;;;;-2.40;99.90;;;;;;5067942;28;20019;-58
2023/12/04 14:53:45;;;;;;;;;;;-2.40;99.90;;;;;;5068826;28;20378;-60
2023/12/04 15:10:26;;;;;;;;;;;-2.30;99.90;;;;;;5071682;28;19928;-62
2023/12/04 15:16:14;;;;;;;;;;;-2.20;99.90;;;;;;5077387;28;20030;-60
2023/12/04 15:18:37;;;;;;;;;;;-2.20;99.90;;;;;;5072804;28;19924;-61
2023/12/04 15:21:06;;;;;;;;;;;-2.20;99.90;;;;;;5065511;28;19973;-59
2023/12/04 15:23:33;;;;;;;;;;;-2.20;99.90;;;;;;5073158;28;19928;-61
2023/12/04 15:25:59;;;;;;;;;;;-2.20;99.90;;;;;;5068374;28;19929;-59
2023/12/04 15:28:26;;;;;;;;;;;-2.20;99.90;;;;;;5069698;28;20332;-59
2023/12/04 15:30:58;;;;;;;;;;;-2.20;99.90;;;;;;5068089;28;20022;-59
2023/12/04 15:33:26;;;;;;;;;;;-2.10;99.90;;;;;;5073369;28;19924;-59
2023/12/04 15:35:54;;;;;;;;;;;-2.10;99.90;;;;;;5064929;28;19928;-59
2023/12/04 15:38:21;;;;;;;;;;;-2.00;99.90;;;;;;5068062;28;19931;-63
2023/12/04 15:40:48;;;;;;;;;;;-2.10;99.90;;;;;;5071008;28;19978;-59
2023/12/04 15:43:16;;;;;;;;;;;-2.10;99.90;;;;;;5079697;28;19928;-59
2023/12/04 15:45:43;;;;;;;;;;;-2.00;99.90;;;;;;5076843;28;20177;-58
2023/12/04 15:48:11;;;;;;;;;;;-2.00;99.90;;;;;;5083334;28;19928;-60
2023/12/04 15:50:38;;;;;;;;;;;-2.00;99.90;;;;;;5069903;28;19924;-67
2023/12/04 15:53:05;;;;;;;;;;;-2.00;99.90;;;;;;5069165;28;19960;-60
2023/12/04 15:55:31;;;;;;;;;;;-1.90;99.90;;;;;;5083074;28;19928;-60
2023/12/04 15:57:58;;;;;;;;;;;-1.90;99.90;;;;;;5080676;28;19935;-61
2023/12/04 16:00:26;;;;;;;;;;;-1.90;99.90;;;;;;5075406;28;19934;-58
2023/12/04 16:02:53;;;;;;;;;;;-1.90;99.90;;;;;;5082328;28;19976;-62
2023/12/04 16:05:21;;;;;;;;;;;-1.90;99.90;;;;;;5075108;28;20374;-59
2023/12/04 16:07:48;;;;;;;;;;;-1.90;99.90;;;;;;5069682;28;20351;-60
2023/12/04 16:10:16;;;;;;;;;;;-1.90;99.90;;;;;;5072694;28;19932;-68
2023/12/04 16:12:42;;;;;;;;;;;-1.90;99.90;;;;;;5073917;28;19953;-59
2023/12/04 16:15:10;;;;;;;;;;;-1.90;99.90;;;;;;5074765;28;19938;-58
2023/12/04 16:17:40;;;;;;;;;;;-1.90;99.90;;;;;;5075246;28;19971;-65
2023/12/04 16:20:09;;;;;;;;;;;-1.90;99.90;;;;;;5076444;28;19931;-60
2023/12/04 16:22:42;;;;;;;;;;;-1.90;99.90;;;;;;5071556;28;20270;-61
2023/12/04 16:25:11;;;;;;;;;;;-1.80;99.90;;;;;;5074296;28;19924;-59
2023/12/04 16:27:38;;;;;;;;;;;-1.90;99.90;;;;;;5069957;28;19955;-60
2023/12/04 16:30:06;;;;;;;;;;;-1.90;99.90;;;;;;5073736;28;20427;-59
2023/12/04 16:32:33;;;;;;;;;;;-1.90;99.90;;;;;;5073340;28;19929;-59
2023/12/04 16:35:00;;;;;;;;;;;-1.80;99.90;;;;;;5069978;28;19928;-60
2023/12/04 16:37:28;;;;;;;;;;;-1.80;99.90;;;;;;5070985;28;19928;-59
2023/12/04 16:39:55;;;;;;;;;;;-1.90;99.90;;;;;;5066813;28;19928;-59
2023/12/04 16:42:22;;;;;;;;;;;-1.90;99.90;;;;;;5077225;28;19931;-61
2023/12/04 16:44:49;;;;;;;;;;;-1.80;99.90;;;;;;5077549;28;19931;-60
2023/12/04 16:47:16;;;;;;;;;;;-1.80;99.90;;;;;;5075788;28;19976;-60
2023/12/04 16:49:43;;;;;;;;;;;-1.80;99.90;;;;;;5072568;28;19966;-60
2023/12/04 16:52:14;;;;;;;;;;;-1.80;99.90;;;;;;5072398;28;19924;-59
2023/12/04 16:54:41;;;;;;;;;;;-1.80;99.90;;;;;;5071700;28;19932;-59
2023/12/04 16:57:09;;;;;;;;;;;-1.80;99.90;;;;;;5071511;28;19942;-60